Time,TemperatureF,DewpointF,PressureIn,WindDirection,WindDirectionDegrees,WindSpeedMPH,WindSpeedGustMPH,Humidity,HourlyPrecipIn,Conditions,Clouds,dailyrainin,SoftwareType,DateUTC
2013-09-23 00:00:00,59.8,37.9,29.67,NNW,338,2.0,13.0,44,0.00,,---,0.00,VWS V13.01,2013-09-23 06:00:00,
2013-09-23 00:30:00,58.3,38.2,29.68,NNW,338,2.0,9.0,47,0.00,,---,0.00,VWS V13.01,2013-09-23 06:30:00,
2013-09-23 01:00:00,57.4,38.4,29.69,North,0,3.0,8.0,49,0.00,,---,0.00,VWS V13.01,2013-09-23 07:00:00,
2013-09-23 01:30:00,56.5,38.6,29.71,North,0,4.0,9.0,51,0.00,,---,0.00,VWS V13.01,2013-09-23 07:30:00,
2013-09-23 02:00:00,55.8,38.9,29.71,North,0,4.0,10.0,53,0.00,,---,0.00,VWS V13.01,2013-09-23 08:00:00,
2013-09-23 02:30:00,55.0,38.7,29.70,North,0,5.0,14.0,54,0.00,,---,0.00,VWS V13.01,2013-09-23 08:30:00,
2013-09-23 03:00:00,54.4,38.6,29.71,North,0,6.0,19.0,55,0.00,,---,0.00,VWS V13.01,2013-09-23 09:00:00,
2013-09-23 03:30:00,54.0,37.3,29.71,North,0,4.0,13.0,53,0.00,,---,0.00,VWS V13.01,2013-09-23 09:30:00,
2013-09-23 04:00:00,53.8,39.4,29.72,North,0,1.0,6.0,58,0.00,,---,0.00,VWS V13.01,2013-09-23 10:00:00,
2013-09-23 04:30:00,52.1,39.5,29.73,North,0,1.0,7.0,62,0.00,,---,0.00,VWS V13.01,2013-09-23 10:30:00,
2013-09-23 05:00:00,50.5,38.8,29.74,North,0,0.0,4.0,64,0.00,,---,0.00,VWS V13.01,2013-09-23 11:00:00,
2013-09-23 05:30:00,49.3,38.0,29.75,North,0,2.0,7.0,65,0.00,,---,0.00,VWS V13.01,2013-09-23 11:30:00,
2013-09-23 06:00:00,49.6,34.6,29.75,NW,315,6.0,17.0,56,0.00,,---,0.00,VWS V13.01,2013-09-23 12:00:00,
2013-09-23 06:30:00,50.7,37.8,29.76,NW,315,5.0,15.0,61,0.00,,---,0.00,VWS V13.01,2013-09-23 12:30:00,
2013-09-23 07:00:00,47.6,38.0,29.77,North,0,0.0,5.0,69,0.00,,---,0.00,VWS V13.01,2013-09-23 13:00:00,
2013-09-23 07:30:00,48.1,36.5,29.78,North,0,3.0,10.0,64,0.00,,---,0.00,VWS V13.01,2013-09-23 13:30:00,
2013-09-23 08:00:00,47.5,38.2,29.80,North,0,1.0,6.0,70,0.00,,---,0.00,VWS V13.01,2013-09-23 14:00:00,
2013-09-23 08:30:00,51.0,30.4,29.80,WNW,292,1.0,13.0,45,0.00,,---,0.00,VWS V13.01,2013-09-23 14:30:00,
2013-09-23 09:00:00,57.2,31.8,29.81,WNW,292,7.0,18.0,38,0.00,,---,0.00,VWS V13.01,2013-09-23 15:00:00,
2013-09-23 09:30:00,61.0,32.5,29.82,WNW,292,7.0,15.0,34,0.00,,---,0.00,VWS V13.01,2013-09-23 15:30:00,
2013-09-23 09:47:00,61.0,32.5,29.82,WNW,292,7.0,15.0,34,0.00,,---,0.00,VWS V13.01,2013-09-23 15:47:00,
2013-09-23 09:52:00,59.8,32.1,29.82,WSW,258,8.0,14.0,35,0.00,,---,0.00,VWS V13.01,2013-09-23 15:52:00,
2013-09-23 09:57:00,59.8,31.4,29.82,WSW,255,11.0,14.0,34,0.00,,---,0.00,VWS V13.01,2013-09-23 15:57:00,
2013-09-23 10:02:00,59.9,31.5,29.83,WSW,256,7.0,11.0,34,0.00,,---,0.00,VWS V13.01,2013-09-23 16:02:00,
2013-09-23 10:07:00,60.0,30.8,29.83,WSW,249,11.0,14.0,33,0.00,,---,0.00,VWS V13.01,2013-09-23 16:07:00,
2013-09-23 10:12:00,60.4,31.9,29.83,WSW,246,10.0,14.0,34,0.00,,---,0.00,VWS V13.01,2013-09-23 16:12:00,
2013-09-23 10:17:00,60.8,31.5,29.82,West,266,3.0,14.0,33,0.00,,---,0.00,VWS V13.01,2013-09-23 16:17:00,
2013-09-23 10:22:00,60.9,31.6,29.83,West,281,6.0,14.0,33,0.00,,---,0.00,VWS V13.01,2013-09-23 16:22:00,
2013-09-23 10:28:00,60.8,31.5,29.83,West,272,8.0,15.0,33,0.00,,---,0.00,VWS V13.01,2013-09-23 16:28:00,
2013-09-23 10:33:00,61.1,31.0,29.83,WSW,257,7.0,19.0,32,0.00,,---,0.00,VWS V13.01,2013-09-23 16:33:00,
2013-09-23 10:38:00,60.7,29.1,29.82,WNW,296,4.0,19.0,30,0.00,,---,0.00,VWS V13.01,2013-09-23 16:38:00,
2013-09-23 10:43:00,60.7,30.7,29.83,WSW,238,15.0,19.0,32,0.00,,---,0.00,VWS V13.01,2013-09-23 16:43:00,
2013-09-23 10:48:00,61.4,32.1,29.83,West,267,11.0,19.0,33,0.00,,---,0.00,VWS V13.01,2013-09-23 16:48:00,
2013-09-23 10:53:00,62.0,31.0,29.83,WSW,250,5.0,19.0,31,0.00,,---,0.00,VWS V13.01,2013-09-23 16:53:00,
2013-09-23 10:58:00,62.6,30.8,29.83,WSW,250,10.0,25.0,30,0.00,,---,0.00,VWS V13.01,2013-09-23 16:58:00,
2013-09-23 11:03:00,62.8,30.1,29.83,WSW,250,3.0,14.0,29,0.00,,---,0.00,VWS V13.01,2013-09-23 17:03:00,
2013-09-23 11:08:00,63.0,30.3,29.83,WSW,248,10.0,16.0,29,0.00,,---,0.00,VWS V13.01,2013-09-23 17:08:00,
2013-09-23 11:13:00,62.7,30.8,29.84,West,266,4.0,16.0,30,0.00,,---,0.00,VWS V13.01,2013-09-23 17:13:00,
2013-09-23 11:18:00,62.7,30.8,29.83,West,265,5.0,16.0,30,0.00,,---,0.00,VWS V13.01,2013-09-23 17:18:00,
2013-09-23 11:23:00,63.4,30.6,29.83,WSW,247,7.0,16.0,29,0.00,,---,0.00,VWS V13.01,2013-09-23 17:23:00,
2013-09-23 11:28:00,63.9,30.2,29.83,West,259,6.0,16.0,28,0.00,,---,0.00,VWS V13.01,2013-09-23 17:28:00,
2013-09-23 11:33:00,64.3,29.6,29.83,SW,228,12.0,17.0,27,0.00,,---,0.00,VWS V13.01,2013-09-23 17:33:00,
2013-09-23 11:38:00,64.6,30.8,29.83,West,261,4.0,18.0,28,0.00,,---,0.00,VWS V13.01,2013-09-23 17:38:00,
2013-09-23 11:44:00,64.3,29.6,29.84,West,271,7.0,18.0,27,0.00,,---,0.00,VWS V13.01,2013-09-23 17:44:00,
2013-09-23 11:49:00,64.3,29.6,29.84,West,261,4.0,18.0,27,0.00,,---,0.00,VWS V13.01,2013-09-23 17:49:00,
2013-09-23 11:54:00,64.7,30.0,29.83,WSW,248,10.0,18.0,27,0.00,,---,0.00,VWS V13.01,2013-09-23 17:54:00,
2013-09-23 11:59:00,64.9,30.1,29.83,West,260,5.0,18.0,27,0.00,,---,0.00,VWS V13.01,2013-09-23 17:59:00,
2013-09-23 12:04:00,65.2,30.4,29.83,West,264,11.0,14.0,27,0.00,,---,0.00,VWS V13.01,2013-09-23 18:04:00,
2013-09-23 12:09:00,65.5,30.7,29.83,WSW,256,8.0,17.0,27,0.00,,---,0.00,VWS V13.01,2013-09-23 18:09:00,
2013-09-23 12:14:00,65.8,30.9,29.83,WNW,282,6.0,17.0,27,0.00,,---,0.00,VWS V13.01,2013-09-23 18:14:00,
2013-09-23 12:19:00,65.2,29.5,29.83,WSW,244,8.0,17.0,26,0.00,,---,0.00,VWS V13.01,2013-09-23 18:19:00,
2013-09-23 12:24:00,64.7,29.0,29.82,WSW,248,10.0,17.0,26,0.00,,---,0.00,VWS V13.01,2013-09-23 18:24:00,
2013-09-23 12:29:00,65.3,30.5,29.82,SW,226,18.0,18.0,27,0.00,,---,0.00,VWS V13.01,2013-09-23 18:29:00,
2013-09-23 12:34:00,65.7,29.9,29.83,West,263,8.0,18.0,26,0.00,,---,0.00,VWS V13.01,2013-09-23 18:34:00,
2013-09-23 12:39:00,65.6,27.9,29.83,SW,236,11.0,19.0,24,0.00,,---,0.00,VWS V13.01,2013-09-23 18:39:00,
2013-09-23 12:45:00,64.8,28.2,29.82,West,261,9.0,21.0,25,0.00,,---,0.00,VWS V13.01,2013-09-23 18:45:00,
2013-09-23 12:50:00,64.6,28.0,29.82,West,270,9.0,21.0,25,0.00,,---,0.00,VWS V13.01,2013-09-23 18:50:00,
2013-09-23 12:55:00,63.5,27.1,29.82,WSW,248,10.0,24.0,25,0.00,,---,0.00,VWS V13.01,2013-09-23 18:55:00,
2013-09-23 13:00:00,62.9,27.5,29.81,WSW,244,11.0,12.0,26,0.00,,---,0.00,VWS V13.01,2013-09-23 19:00:00,
2013-09-23 13:05:00,63.3,28.8,29.81,WSW,257,8.0,15.0,27,0.00,,---,0.00,VWS V13.01,2013-09-23 19:05:00,
2013-09-23 13:10:00,64.2,27.7,29.82,West,261,12.0,16.0,25,0.00,,---,0.00,VWS V13.01,2013-09-23 19:10:00,
2013-09-23 13:15:00,65.1,27.4,29.81,WSW,246,8.0,17.0,24,0.00,,---,0.00,VWS V13.01,2013-09-23 19:15:00,
2013-09-23 13:20:00,65.6,27.9,29.82,WNW,282,10.0,17.0,24,0.00,,---,0.00,VWS V13.01,2013-09-23 19:20:00,
2013-09-23 13:25:00,65.8,29.0,29.82,WSW,251,13.0,17.0,25,0.00,,---,0.00,VWS V13.01,2013-09-23 19:25:00,
2013-09-23 13:30:00,65.9,28.1,29.82,WSW,244,11.0,12.0,24,0.00,,---,0.00,VWS V13.01,2013-09-23 19:30:00,
2013-09-23 13:35:00,66.1,29.3,29.82,WSW,241,8.0,13.0,25,0.00,,---,0.00,VWS V13.01,2013-09-23 19:35:00,
2013-09-23 13:40:00,66.9,29.0,29.81,WSW,244,9.0,17.0,24,0.00,,---,0.00,VWS V13.01,2013-09-23 19:40:00,
2013-09-23 13:45:00,67.0,29.0,29.82,West,265,3.0,17.0,24,0.00,,---,0.00,VWS V13.01,2013-09-23 19:45:00,
2013-09-23 13:51:00,66.8,28.9,29.81,WSW,257,6.0,17.0,24,0.00,,---,0.00,VWS V13.01,2013-09-23 19:51:00,
2013-09-23 13:56:00,66.7,28.8,29.81,WSW,244,14.0,20.0,24,0.00,,---,0.00,VWS V13.01,2013-09-23 19:56:00,
2013-09-23 14:01:00,66.8,27.8,29.81,West,265,7.0,16.0,23,0.00,,---,0.00,VWS V13.01,2013-09-23 20:01:00,
2013-09-23 14:06:00,66.9,29.0,29.82,WSW,251,12.0,18.0,24,0.00,,---,0.00,VWS V13.01,2013-09-23 20:06:00,
2013-09-23 14:11:00,66.7,27.8,29.82,West,270,8.0,18.0,23,0.00,,---,0.00,VWS V13.01,2013-09-23 20:11:00,
2013-09-23 14:16:00,66.7,28.8,29.81,West,272,10.0,19.0,24,0.00,,---,0.00,VWS V13.01,2013-09-23 20:16:00,
2013-09-23 14:21:00,66.5,28.6,29.81,WSW,251,11.0,19.0,24,0.00,,---,0.00,VWS V13.01,2013-09-23 20:21:00,
2013-09-23 14:26:00,66.3,28.5,29.81,WNW,284,3.0,19.0,24,0.00,,---,0.00,VWS V13.01,2013-09-23 20:26:00,
2013-09-23 14:31:00,66.6,28.7,29.81,West,268,6.0,14.0,24,0.00,,---,0.00,VWS V13.01,2013-09-23 20:31:00,
2013-09-23 14:36:00,66.7,28.8,29.81,WSW,247,8.0,14.0,24,0.00,,---,0.00,VWS V13.01,2013-09-23 20:36:00,
2013-09-23 14:41:00,66.9,29.0,29.81,West,275,7.0,14.0,24,0.00,,---,0.00,VWS V13.01,2013-09-23 20:41:00,
2013-09-23 14:46:00,66.9,29.0,29.82,SW,235,11.0,14.0,24,0.00,,---,0.00,VWS V13.01,2013-09-23 20:46:00,
2013-09-23 14:52:00,67.6,29.6,29.81,WSW,250,5.0,14.0,24,0.00,,---,0.00,VWS V13.01,2013-09-23 20:52:00,
2013-09-23 14:57:00,67.1,29.1,29.82,WSW,255,8.0,23.0,24,0.00,,---,0.00,VWS V13.01,2013-09-23 20:57:00,
2013-09-23 15:02:00,67.0,28.0,29.82,West,270,13.0,14.0,23,0.00,,---,0.00,VWS V13.01,2013-09-23 21:02:00,
2013-09-23 15:07:00,67.1,29.1,29.81,WSW,240,5.0,14.0,24,0.00,,---,0.00,VWS V13.01,2013-09-23 21:07:00,
2013-09-23 15:12:00,67.2,29.2,29.81,SW,225,14.0,14.0,24,0.00,,---,0.00,VWS V13.01,2013-09-23 21:12:00,
2013-09-23 15:17:00,67.5,29.5,29.82,SW,232,9.0,15.0,24,0.00,,---,0.00,VWS V13.01,2013-09-23 21:17:00,
2013-09-23 15:22:00,67.6,29.6,29.82,WSW,257,7.0,19.0,24,0.00,,---,0.00,VWS V13.01,2013-09-23 21:22:00,
2013-09-23 15:27:00,67.3,28.3,29.82,West,264,10.0,19.0,23,0.00,,---,0.00,VWS V13.01,2013-09-23 21:27:00,
2013-09-23 15:32:00,67.0,26.9,29.82,WNW,282,11.0,15.0,22,0.00,,---,0.00,VWS V13.01,2013-09-23 21:32:00,
2013-09-23 15:37:00,66.7,27.8,29.81,WNW,285,5.0,15.0,23,0.00,,---,0.00,VWS V13.01,2013-09-23 21:37:00,
2013-09-23 15:42:00,66.8,28.9,29.82,WSW,248,8.0,15.0,24,0.00,,---,0.00,VWS V13.01,2013-09-23 21:42:00,
2013-09-23 15:47:00,66.7,28.8,29.82,WSW,250,6.0,18.0,24,0.00,,---,0.00,VWS V13.01,2013-09-23 21:47:00,
2013-09-23 15:53:00,66.7,28.8,29.82,WSW,254,7.0,18.0,24,0.00,,---,0.00,VWS V13.01,2013-09-23 21:53:00,
2013-09-23 15:58:00,66.5,28.6,29.82,WSW,248,10.0,18.0,24,0.00,,---,0.00,VWS V13.01,2013-09-23 21:58:00,
2013-09-23 16:03:00,66.5,28.6,29.83,West,259,5.0,12.0,24,0.00,,---,0.00,VWS V13.01,2013-09-23 22:03:00,
2013-09-23 16:08:00,66.4,28.5,29.82,West,260,10.0,15.0,24,0.00,,---,0.00,VWS V13.01,2013-09-23 22:08:00,
2013-09-23 16:13:00,66.2,28.4,29.82,West,278,16.0,16.0,24,0.00,,---,0.00,VWS V13.01,2013-09-23 22:13:00,
2013-09-23 16:18:00,66.1,26.2,29.83,WNW,292,4.0,16.0,22,0.00,,---,0.00,VWS V13.01,2013-09-23 22:18:00,
2013-09-23 16:23:00,66.1,27.2,29.83,West,271,7.0,16.0,23,0.00,,---,0.00,VWS V13.01,2013-09-23 22:23:00,
2013-09-23 16:28:00,66.2,27.3,29.83,WSW,257,6.0,16.0,23,0.00,,---,0.00,VWS V13.01,2013-09-23 22:28:00,
2013-09-23 16:33:00,66.2,26.3,29.83,West,273,11.0,18.0,22,0.00,,---,0.00,VWS V13.01,2013-09-23 22:33:00,
2013-09-23 16:38:00,66.0,27.2,29.83,West,268,13.0,18.0,23,0.00,,---,0.00,VWS V13.01,2013-09-23 22:38:00,
2013-09-23 16:43:00,66.0,26.1,29.83,WNW,289,7.0,18.0,22,0.00,,---,0.00,VWS V13.01,2013-09-23 22:43:00,
2013-09-23 16:49:00,66.0,26.1,29.83,WNW,284,13.0,23.0,22,0.00,,---,0.00,VWS V13.01,2013-09-23 22:49:00,
2013-09-23 16:54:00,65.8,24.8,29.83,West,269,13.0,23.0,21,0.00,,---,0.00,VWS V13.01,2013-09-23 22:54:00,
2013-09-23 16:59:00,65.7,25.8,29.83,WSW,258,8.0,23.0,22,0.00,,---,0.00,VWS V13.01,2013-09-23 22:59:00,
2013-09-23 17:04:00,65.7,25.8,29.82,West,270,12.0,18.0,22,0.00,,---,0.00,VWS V13.01,2013-09-23 23:04:00,
2013-09-23 17:09:00,65.4,25.6,29.83,West,280,11.0,19.0,22,0.00,,---,0.00,VWS V13.01,2013-09-23 23:09:00,
2013-09-23 17:14:00,65.2,24.3,29.83,WNW,284,13.0,21.0,21,0.00,,---,0.00,VWS V13.01,2013-09-23 23:14:00,
2013-09-23 17:19:00,65.1,25.3,29.82,WNW,285,12.0,22.0,22,0.00,,---,0.00,VWS V13.01,2013-09-23 23:19:00,
2013-09-23 17:24:00,65.1,25.3,29.83,WNW,284,17.0,22.0,22,0.00,,---,0.00,VWS V13.01,2013-09-23 23:24:00,
2013-09-23 17:29:00,64.9,25.2,29.83,West,276,7.0,22.0,22,0.00,,---,0.00,VWS V13.01,2013-09-23 23:29:00,
2013-09-23 17:34:00,64.7,25.0,29.83,WNW,285,9.0,14.0,22,0.00,,---,0.00,VWS V13.01,2013-09-23 23:34:00,
2013-09-23 17:39:00,64.6,26.0,29.83,West,276,6.0,14.0,23,0.00,,---,0.00,VWS V13.01,2013-09-23 23:39:00,
2013-09-23 17:44:00,64.5,25.9,29.83,West,264,15.0,17.0,23,0.00,,---,0.00,VWS V13.01,2013-09-23 23:44:00,
2013-09-23 17:50:00,64.5,24.8,29.84,West,274,8.0,17.0,22,0.00,,---,0.00,VWS V13.01,2013-09-23 23:50:00,
2013-09-23 17:55:00,64.3,25.7,29.84,WNW,283,8.0,17.0,23,0.00,,---,0.00,VWS V13.01,2013-09-23 23:55:00,
2013-09-23 18:00:00,64.1,26.6,29.84,WNW,299,2.0,17.0,24,0.00,,---,0.00,VWS V13.01,2013-09-24 00:00:00,
2013-09-23 18:05:00,63.9,25.4,29.84,WNW,286,9.0,16.0,23,0.00,,---,0.00,VWS V13.01,2013-09-24 00:05:00,
2013-09-23 18:10:00,63.5,26.1,29.84,West,276,10.0,16.0,24,0.00,,---,0.00,VWS V13.01,2013-09-24 00:10:00,
2013-09-23 18:15:00,63.4,26.0,29.84,WSW,258,6.0,16.0,24,0.00,,---,0.00,VWS V13.01,2013-09-24 00:15:00,
2013-09-23 18:20:00,63.1,25.8,29.83,West,277,13.0,18.0,24,0.00,,---,0.00,VWS V13.01,2013-09-24 00:20:00,
2013-09-23 18:25:00,62.5,28.1,29.84,West,277,6.0,18.0,27,0.00,,---,0.00,VWS V13.01,2013-09-24 00:25:00,
2013-09-23 18:30:00,61.9,28.5,29.84,West,277,7.0,8.0,28,0.00,,---,0.00,VWS V13.01,2013-09-24 00:30:00,
2013-09-23 18:35:00,61.3,27.1,29.84,West,259,9.0,17.0,27,0.00,,---,0.00,VWS V13.01,2013-09-24 00:35:00,
2013-09-23 18:40:00,61.0,26.8,29.84,WSW,256,13.0,17.0,27,0.00,,---,0.00,VWS V13.01,2013-09-24 00:40:00,
2013-09-23 18:45:00,60.8,26.6,29.85,West,266,7.0,17.0,27,0.00,,---,0.00,VWS V13.01,2013-09-24 00:45:00,
2013-09-23 18:50:00,60.7,26.5,29.84,WSW,258,11.0,17.0,27,0.00,,---,0.00,VWS V13.01,2013-09-24 00:50:00,
2013-09-23 18:56:00,60.6,26.5,29.84,WSW,240,3.0,17.0,27,0.00,,---,0.00,VWS V13.01,2013-09-24 00:56:00,
2013-09-23 19:01:00,60.4,26.3,29.86,West,271,7.0,12.0,27,0.00,,---,0.00,VWS V13.01,2013-09-24 01:01:00,
2013-09-23 19:06:00,60.3,26.2,29.85,WSW,254,9.0,14.0,27,0.00,,---,0.00,VWS V13.01,2013-09-24 01:06:00,
2013-09-23 19:11:00,60.2,26.1,29.86,West,277,8.0,14.0,27,0.00,,---,0.00,VWS V13.01,2013-09-24 01:11:00,
2013-09-23 19:16:00,60.1,26.0,29.85,WSW,253,11.0,15.0,27,0.00,,---,0.00,VWS V13.01,2013-09-24 01:16:00,
2013-09-23 19:21:00,59.9,25.9,29.85,West,275,5.0,15.0,27,0.00,,---,0.00,VWS V13.01,2013-09-24 01:21:00,
2013-09-23 19:26:00,59.8,25.8,29.85,West,275,6.0,16.0,27,0.00,,---,0.00,VWS V13.01,2013-09-24 01:26:00,
2013-09-23 19:31:00,59.8,25.8,29.86,West,279,7.0,12.0,27,0.00,,---,0.00,VWS V13.01,2013-09-24 01:31:00,
2013-09-23 19:36:00,59.8,25.8,29.87,West,272,6.0,14.0,27,0.00,,---,0.00,VWS V13.01,2013-09-24 01:36:00,
2013-09-23 19:41:00,59.7,25.7,29.86,West,276,9.0,15.0,27,0.00,,---,0.00,VWS V13.01,2013-09-24 01:41:00,
2013-09-23 19:46:00,59.6,25.6,29.87,West,260,12.0,19.0,27,0.00,,---,0.00,VWS V13.01,2013-09-24 01:46:00,
2013-09-23 19:52:00,59.5,25.5,29.87,WSW,237,10.0,19.0,27,0.00,,---,0.00,VWS V13.01,2013-09-24 01:52:00,
2013-09-23 19:57:00,59.5,25.5,29.86,West,261,8.0,19.0,27,0.00,,---,0.00,VWS V13.01,2013-09-24 01:57:00,
2013-09-23 20:02:00,59.5,25.5,29.87,WSW,253,9.0,15.0,27,0.00,,---,0.00,VWS V13.01,2013-09-24 02:02:00,
2013-09-23 20:07:00,59.3,26.2,29.88,WSW,242,5.0,15.0,28,0.00,,---,0.00,VWS V13.01,2013-09-24 02:07:00,
2013-09-23 20:12:00,59.2,26.1,29.87,WNW,282,7.0,16.0,28,0.00,,---,0.00,VWS V13.01,2013-09-24 02:12:00,
2013-09-23 20:17:00,59.2,26.1,29.88,West,273,3.0,16.0,28,0.00,,---,0.00,VWS V13.01,2013-09-24 02:17:00,
2013-09-23 20:22:00,59.0,25.1,29.89,WSW,245,8.0,16.0,27,0.00,,---,0.00,VWS V13.01,2013-09-24 02:22:00,
2013-09-23 20:27:00,58.9,25.0,29.88,West,280,11.0,16.0,27,0.00,,---,0.00,VWS V13.01,2013-09-24 02:27:00,
2013-09-23 20:32:00,58.9,25.0,29.88,WSW,248,8.0,12.0,27,0.00,,---,0.00,VWS V13.01,2013-09-24 02:32:00,
2013-09-23 20:37:00,59.0,25.1,29.89,West,276,8.0,12.0,27,0.00,,---,0.00,VWS V13.01,2013-09-24 02:37:00,
2013-09-23 20:42:00,58.9,25.0,29.89,West,270,8.0,16.0,27,0.00,,---,0.00,VWS V13.01,2013-09-24 02:42:00,
2013-09-23 20:48:00,58.9,25.9,29.89,WNW,283,6.0,16.0,28,0.00,,---,0.00,VWS V13.01,2013-09-24 02:48:00,
2013-09-23 20:53:00,58.9,25.9,29.89,West,263,7.0,16.0,28,0.00,,---,0.00,VWS V13.01,2013-09-24 02:53:00,
2013-09-23 20:58:00,58.9,25.9,29.89,West,268,9.0,19.0,28,0.00,,---,0.00,VWS V13.01,2013-09-24 02:58:00,
2013-09-23 21:03:00,58.8,25.8,29.90,West,278,5.0,13.0,28,0.00,,---,0.00,VWS V13.01,2013-09-24 03:03:00,
2013-09-23 21:08:00,58.6,26.5,29.89,West,271,8.0,18.0,29,0.00,,---,0.00,VWS V13.01,2013-09-24 03:08:00,
2013-09-23 21:13:00,58.4,26.3,29.89,WNW,290,5.0,18.0,29,0.00,,---,0.00,VWS V13.01,2013-09-24 03:13:00,
2013-09-23 21:18:00,58.2,26.9,29.90,WNW,284,4.0,22.0,30,0.00,,---,0.00,VWS V13.01,2013-09-24 03:18:00,
2013-09-23 21:23:00,58.1,26.9,29.90,WNW,289,10.0,22.0,30,0.00,,---,0.00,VWS V13.01,2013-09-24 03:23:00,
2013-09-23 21:28:00,57.9,26.7,29.90,WNW,292,2.0,22.0,30,0.00,,---,0.00,VWS V13.01,2013-09-24 03:28:00,
2013-09-23 21:33:00,57.6,26.4,29.91,West,279,9.0,9.0,30,0.00,,---,0.00,VWS V13.01,2013-09-24 03:33:00,
2013-09-23 21:38:00,57.4,27.0,29.91,WNW,292,2.0,9.0,31,0.00,,---,0.00,VWS V13.01,2013-09-24 03:38:00,
2013-09-23 21:43:00,57.3,26.2,29.91,West,274,9.0,10.0,30,0.00,,---,0.00,VWS V13.01,2013-09-24 03:43:00,
2013-09-23 21:49:00,57.2,27.6,29.92,WNW,284,4.0,10.0,32,0.00,,---,0.00,VWS V13.01,2013-09-24 03:49:00,
2013-09-23 21:54:00,57.2,27.6,29.92,West,260,6.0,11.0,32,0.00,,---,0.00,VWS V13.01,2013-09-24 03:54:00,
2013-09-23 21:59:00,57.1,27.5,29.91,West,273,6.0,11.0,32,0.00,,---,0.00,VWS V13.01,2013-09-24 03:59:00,
2013-09-23 22:01:00,57.1,27.5,29.92,WSW,257,7.0,8.0,32,0.00,,---,0.00,VWS V13.01,2013-09-24 04:01:00,
2013-09-23 22:02:00,57.1,27.5,29.92,West,265,2.0,8.0,32,0.00,,---,0.00,VWS V13.01,2013-09-24 04:02:00,
2013-09-23 22:03:00,57.1,27.5,29.91,WNW,289,2.0,8.0,32,0.00,,---,0.00,VWS V13.01,2013-09-24 04:03:00,
2013-09-23 22:08:00,57.0,27.5,29.91,WNW,295,5.0,8.0,32,0.00,,---,0.00,VWS V13.01,2013-09-24 04:08:00,
2013-09-23 22:13:00,56.8,28.0,29.92,West,259,1.0,8.0,33,0.00,,---,0.00,VWS V13.01,2013-09-24 04:13:00,
2013-09-23 22:18:00,56.9,28.1,29.91,West,261,5.0,12.0,33,0.00,,---,0.00,VWS V13.01,2013-09-24 04:18:00,
2013-09-23 22:23:00,56.8,28.0,29.91,West,268,5.0,12.0,33,0.00,,---,0.00,VWS V13.01,2013-09-24 04:23:00,
2013-09-23 22:28:00,56.8,28.0,29.90,West,271,3.0,12.0,33,0.00,,---,0.00,VWS V13.01,2013-09-24 04:28:00,
2013-09-23 22:33:00,56.7,28.7,29.91,NW,306,1.0,13.0,34,0.00,,---,0.00,VWS V13.01,2013-09-24 04:33:00,
2013-09-23 22:38:00,56.7,28.7,29.92,West,261,9.0,13.0,34,0.00,,---,0.00,VWS V13.01,2013-09-24 04:38:00,
2013-09-23 22:43:00,56.8,28.8,29.92,WNW,288,8.0,13.0,34,0.00,,---,0.00,VWS V13.01,2013-09-24 04:43:00,
2013-09-23 22:48:00,56.8,28.8,29.92,WNW,285,9.0,13.0,34,0.00,,---,0.00,VWS V13.01,2013-09-24 04:48:00,
2013-09-23 22:53:00,56.8,28.8,29.92,WNW,289,2.0,13.0,34,0.00,,---,0.00,VWS V13.01,2013-09-24 04:53:00,
2013-09-23 22:58:00,56.7,29.4,29.92,West,265,5.0,13.0,35,0.00,,---,0.00,VWS V13.01,2013-09-24 04:58:00,
2013-09-23 23:04:00,56.6,29.3,29.92,WSW,248,9.0,13.0,35,0.00,,---,0.00,VWS V13.01,2013-09-24 05:04:00,
2013-09-23 23:09:00,56.4,29.1,29.92,SW,225,6.0,15.0,35,0.00,,---,0.00,VWS V13.01,2013-09-24 05:09:00,
2013-09-23 23:30:00,56.2,29.6,29.91,WSW,248,7.0,15.0,36,0.00,,---,0.00,VWS V13.01,2013-09-24 05:30:00,